createdAt,value
2019-03-23T00:02:11.879Z,102148.16
2019-03-23T00:04:42.412Z,102146.46
2019-03-23T00:07:13.211Z,102152.22
2019-03-23T00:09:44.708Z,102153.45
2019-03-23T00:12:15.196Z,102154.39
2019-03-23T00:14:46.001Z,102150.05
2019-03-23T00:17:16.479Z,102154.38
2019-03-23T00:19:46.990Z,102157.80
2019-03-23T00:22:17.479Z,102156.81
2019-03-23T00:24:48.158Z,102157.36
2019-03-23T00:27:18.573Z,102155.78
2019-03-23T00:29:50.489Z,102159.36
2019-03-23T00:32:21.089Z,102159.45
2019-03-23T00:34:51.748Z,102160.95
2019-03-23T00:37:22.343Z,102160.67
2019-03-23T00:39:53.223Z,102170.20
2019-03-23T00:42:23.664Z,102172.37
2019-03-23T00:44:54.166Z,102170.20
2019-03-23T00:47:25.044Z,102166.24
2019-03-23T00:49:55.581Z,102172.67
2019-03-23T00:52:25.998Z,102172.11
2019-03-23T00:54:57.641Z,102171.34
2019-03-23T00:57:28.083Z,102181.16
2019-03-23T00:59:58.669Z,102170.86
2019-03-23T01:02:29.138Z,102171.63
2019-03-23T01:05:00.831Z,102173.59
2019-03-23T01:07:33.484Z,102174.16
2019-03-23T01:10:04.292Z,102174.72
2019-03-23T01:12:34.704Z,102175.66
2019-03-23T01:15:06.405Z,102166.41
2019-03-23T01:17:36.906Z,102172.25
2019-03-23T01:20:08.634Z,102168.46
2019-03-23T01:22:39.138Z,102172.16
2019-03-23T01:25:09.887Z,102168.28
2019-03-23T01:27:40.652Z,102175.45
2019-03-23T01:30:11.862Z,102169.78
2019-03-23T01:32:42.347Z,102178.56
2019-03-23T01:35:13.057Z,102168.47
2019-03-23T01:37:43.570Z,102169.96
2019-03-23T01:40:15.715Z,102178.06
2019-03-23T01:42:46.230Z,102177.30
2019-03-23T01:45:16.862Z,102182.58
2019-03-23T01:47:47.532Z,102185.42
2019-03-23T01:50:18.029Z,102186.74
2019-03-23T01:52:48.965Z,102187.51
2019-03-23T01:55:20.958Z,102189.77
2019-03-23T01:57:52.447Z,102191.09
2019-03-23T02:00:22.845Z,102187.39
2019-03-23T02:02:53.819Z,102191.82
2019-03-23T02:05:24.359Z,102186.54
2019-03-23T02:07:54.923Z,102189.86
2019-03-23T02:10:25.438Z,102186.53
2019-03-23T02:12:56.696Z,102199.83
2019-03-23T02:15:27.471Z,102201.41
2019-03-23T02:17:57.959Z,102195.94
2019-03-23T02:20:28.522Z,102194.88
2019-03-23T02:22:58.983Z,102201.91
2019-03-23T02:25:29.526Z,102211.68
2019-03-23T02:28:00.297Z,102217.13
2019-03-23T02:30:30.776Z,102214.09
2019-03-23T02:33:01.342Z,102225.36
2019-03-23T02:35:31.842Z,102228.32
2019-03-23T02:38:02.358Z,102229.61
2019-03-23T02:40:32.847Z,102245.38
2019-03-23T02:43:03.428Z,102240.46
2019-03-23T02:45:34.663Z,102245.67
2019-03-23T02:48:05.149Z,102248.09
2019-03-23T02:50:35.687Z,102252.62
2019-03-23T02:53:06.199Z,102256.03
2019-03-23T02:55:36.609Z,102260.56
2019-03-23T02:58:07.096Z,102261.67
2019-03-23T03:00:39.087Z,102264.69
2019-03-23T03:03:09.694Z,102264.54
2019-03-23T03:05:41.237Z,102263.70
2019-03-23T03:08:11.730Z,102265.06
2019-03-23T03:10:43.004Z,102271.34
2019-03-23T03:13:13.530Z,102288.52
2019-03-23T03:15:44.072Z,102282.37
2019-03-23T03:18:14.555Z,102282.08
2019-03-23T03:20:45.139Z,102283.86
2019-03-23T03:23:15.862Z,102286.31
2019-03-23T03:25:46.899Z,102282.37
2019-03-23T03:28:17.325Z,102291.16
2019-03-23T03:30:49.048Z,102294.57
2019-03-23T03:33:20.490Z,102305.56
2019-03-23T03:35:51.247Z,102300.08
2019-03-23T03:38:21.764Z,102305.30
2019-03-23T03:40:52.718Z,102301.34
2019-03-23T03:43:24.081Z,102300.13
2019-03-23T03:45:54.504Z,102301.64
2019-03-23T03:48:25.006Z,102308.09
2019-03-23T03:50:55.546Z,102305.22
2019-03-23T03:53:25.879Z,102313.27
2019-03-23T03:55:56.389Z,102312.18
2019-03-23T03:58:26.893Z,102315.63
2019-03-23T04:00:57.505Z,102318.66
2019-03-23T04:03:27.954Z,102325.52
2019-03-23T04:05:58.395Z,102320.47
2019-03-23T04:08:28.821Z,102317.15
2019-03-23T04:10:59.375Z,102317.50
2019-03-23T04:13:30.288Z,102320.27
2019-03-23T04:16:01.202Z,102326.69
2019-03-23T04:18:31.693Z,102329.85
2019-03-23T04:21:02.114Z,102332.09
2019-03-23T04:23:33.015Z,102332.02
2019-03-23T04:26:03.526Z,102326.83
2019-03-23T04:28:34.236Z,102335.97
2019-03-23T04:31:04.842Z,102333.27
2019-03-23T04:33:35.305Z,102334.02
2019-03-23T04:36:05.940Z,102337.83
2019-03-23T04:38:36.442Z,102335.13
2019-03-23T04:41:06.931Z,102342.70
2019-03-23T04:43:37.350Z,102347.44
2019-03-23T04:46:07.843Z,102351.64
2019-03-23T04:48:38.295Z,102350.12
2019-03-23T04:51:09.179Z,102347.89
2019-03-23T04:53:39.675Z,102350.38
2019-03-23T04:56:11.067Z,102357.22
2019-03-23T04:58:41.558Z,102354.20
2019-03-23T05:01:12.067Z,102354.70
2019-03-23T05:03:42.495Z,102363.61
2019-03-23T05:06:12.969Z,102363.92
2019-03-23T05:08:43.555Z,102367.80
2019-03-23T05:11:14.428Z,102378.41
2019-03-23T05:13:45.547Z,102375.77
2019-03-23T05:16:16.271Z,102377.48
2019-03-23T05:18:47.013Z,102380.44
2019-03-23T05:21:17.550Z,102381.30
2019-03-23T05:23:48.000Z,102387.81
2019-03-23T05:26:19.171Z,102385.86
2019-03-23T05:28:49.951Z,102380.44
2019-03-23T05:31:20.456Z,102384.17
2019-03-23T05:33:50.892Z,102389.80
2019-03-23T05:36:21.417Z,102396.24
2019-03-23T05:38:51.909Z,102394.32
2019-03-23T05:41:22.811Z,102393.94
2019-03-23T05:43:53.209Z,102390.69
2019-03-23T05:46:23.621Z,102391.69
2019-03-23T05:48:54.545Z,102399.45
2019-03-23T05:51:25.526Z,102397.74
2019-03-23T05:53:56.284Z,102397.20
2019-03-23T05:56:27.075Z,102398.77
2019-03-23T05:58:58.396Z,102398.16
2019-03-23T06:01:29.265Z,102394.03
2019-03-23T06:03:59.738Z,102398.30
2019-03-23T06:06:30.240Z,102397.23
2019-03-23T06:09:00.605Z,102401.41
2019-03-23T06:11:31.166Z,102406.61
2019-03-23T06:14:01.586Z,102412.87
2019-03-23T06:16:32.349Z,102416.36
2019-03-23T06:19:02.754Z,102415.69
2019-03-23T06:21:33.256Z,102418.84
2019-03-23T06:24:03.770Z,102420.73
2019-03-23T06:26:34.273Z,102426.45
2019-03-23T06:29:05.098Z,102424.99
2019-03-23T06:31:35.618Z,102419.25
2019-03-23T06:34:06.165Z,102424.21
2019-03-23T06:36:36.722Z,102420.19
2019-03-23T06:39:08.776Z,102418.62
2019-03-23T06:41:39.220Z,102424.43
2019-03-23T06:44:09.647Z,102419.95
2019-03-23T06:46:40.115Z,102420.16
2019-03-23T06:49:10.731Z,102417.00
2019-03-23T06:51:41.601Z,102422.87
2019-03-23T06:54:13.777Z,102424.34
2019-03-23T06:56:44.988Z,102424.66
2019-03-23T06:59:15.512Z,102431.64
2019-03-23T07:01:46.328Z,102429.00
2019-03-23T07:04:17.110Z,102424.52
2019-03-23T07:06:48.012Z,102428.56
2019-03-23T07:09:18.459Z,102434.05
2019-03-23T07:11:49.040Z,102434.77
2019-03-23T07:14:19.519Z,102439.79
2019-03-23T07:16:50.439Z,102438.86
2019-03-23T07:19:20.877Z,102432.91
2019-03-23T07:21:51.634Z,102439.64
2019-03-23T07:24:22.614Z,102440.34
2019-03-23T07:26:53.030Z,102439.10
2019-03-23T07:29:23.652Z,102439.39
2019-03-23T07:31:54.131Z,102440.18
2019-03-23T07:34:24.652Z,102450.58
2019-03-23T07:36:56.940Z,102443.06
2019-03-23T07:39:30.381Z,102451.97
2019-03-23T07:41:59.751Z,102451.58
2019-03-23T07:44:30.271Z,102460.48
2019-03-23T07:47:00.872Z,102458.77
2019-03-23T07:49:31.293Z,102460.55
2019-03-23T07:52:02.093Z,102469.00
2019-03-23T07:54:32.738Z,102473.09
2019-03-23T07:57:03.209Z,102472.17
2019-03-23T07:59:33.768Z,102475.73
2019-03-23T08:02:04.379Z,102476.05
2019-03-23T08:04:34.810Z,102476.12
2019-03-23T08:07:05.787Z,102473.95
2019-03-23T08:09:38.094Z,102481.78
2019-03-23T08:12:08.973Z,102485.13
2019-03-23T08:14:39.395Z,102486.45
2019-03-23T08:17:09.846Z,102482.70
2019-03-23T08:19:40.262Z,102482.95
2019-03-23T08:22:11.301Z,102488.76
2019-03-23T08:24:42.838Z,102482.03
2019-03-23T08:27:14.529Z,102487.91
2019-03-23T08:29:44.925Z,102492.11
2019-03-23T08:32:15.437Z,102485.38
2019-03-23T08:34:46.263Z,102490.52
2019-03-23T08:37:17.683Z,102488.34
2019-03-23T08:39:48.878Z,102492.97
2019-03-23T08:42:19.545Z,102485.52
2019-03-23T08:44:50.066Z,102487.73
2019-03-23T08:47:20.692Z,102489.12
2019-03-23T08:49:51.257Z,102491.68
2019-03-23T08:52:21.675Z,102480.98
2019-03-23T08:54:54.455Z,102483.03
2019-03-23T08:57:25.017Z,102486.61
2019-03-23T08:59:56.669Z,102484.58
2019-03-23T09:02:27.094Z,102483.31
2019-03-23T09:04:57.836Z,102481.58
2019-03-23T09:07:28.805Z,102478.67
2019-03-23T09:10:00.639Z,102475.16
2019-03-23T09:12:31.373Z,102481.56
2019-03-23T09:15:01.782Z,102487.37
2019-03-23T09:17:32.522Z,102491.89
2019-03-23T09:20:02.941Z,102482.97
2019-03-23T09:22:33.441Z,102487.92
2019-03-23T09:25:04.358Z,102491.53
2019-03-23T09:27:35.668Z,102492.28
2019-03-23T09:30:07.576Z,102491.66
2019-03-23T09:32:38.530Z,102495.40
2019-03-23T09:35:09.445Z,102495.40
2019-03-23T09:37:40.364Z,102496.41
2019-03-23T09:40:11.571Z,102488.04
2019-03-23T09:42:42.256Z,102494.16
2019-03-23T09:45:14.365Z,102497.69
2019-03-23T09:47:44.915Z,102496.36
2019-03-23T09:50:15.755Z,102500.55
2019-03-23T09:52:47.086Z,102495.27
2019-03-23T09:55:17.671Z,102496.73
2019-03-23T09:57:48.101Z,102492.95
2019-03-23T10:00:18.581Z,102504.58
2019-03-23T10:02:49.111Z,102498.32
2019-03-23T10:05:21.081Z,102502.34
2019-03-23T10:07:51.528Z,102498.27
2019-03-23T10:10:22.355Z,102499.64
2019-03-23T10:12:53.551Z,102495.50
2019-03-23T10:15:24.238Z,102499.34
2019-03-23T10:17:54.704Z,102500.36
2019-03-23T10:20:26.145Z,102497.91
2019-03-23T10:22:56.680Z,102495.80
2019-03-23T10:25:27.203Z,102497.58
2019-03-23T10:27:57.749Z,102501.47
2019-03-23T10:30:28.265Z,102496.65
2019-03-23T10:32:58.807Z,102496.34
2019-03-23T10:35:29.216Z,102501.71
2019-03-23T10:37:59.818Z,102500.47
2019-03-23T10:40:32.680Z,102504.68
2019-03-23T10:43:02.538Z,102500.25
2019-03-23T10:45:40.027Z,102498.30
2019-03-23T10:48:05.238Z,102502.28
2019-03-23T10:50:36.113Z,102504.77
2019-03-23T10:53:06.684Z,102506.09
2019-03-23T10:55:37.164Z,102510.22
2019-03-23T10:58:07.618Z,102507.69
2019-03-23T11:00:38.122Z,102506.69
2019-03-23T11:03:10.000Z,102500.87
2019-03-23T11:05:40.573Z,102497.77
2019-03-23T11:08:11.074Z,102497.75
2019-03-23T11:10:42.197Z,102501.47
2019-03-23T11:13:12.594Z,102495.52
2019-03-23T11:15:43.206Z,102497.50
2019-03-23T11:18:14.084Z,102498.69
2019-03-23T11:20:44.590Z,102504.13
2019-03-23T11:23:15.085Z,102506.94
2019-03-23T11:25:45.937Z,102507.30
2019-03-23T11:28:17.293Z,102509.70
2019-03-23T11:30:47.803Z,102512.19
2019-03-23T11:33:18.595Z,102507.30
2019-03-23T11:35:57.511Z,102507.84
2019-03-23T11:38:21.624Z,102517.86
2019-03-23T11:40:55.377Z,102513.12
2019-03-23T11:43:25.781Z,102514.83
2019-03-23T11:45:56.275Z,102512.77
2019-03-23T11:48:26.785Z,102512.77
2019-03-23T11:50:57.647Z,102514.09
2019-03-23T11:53:28.578Z,102513.84
2019-03-23T11:55:59.573Z,102508.78
2019-03-23T11:58:30.162Z,102508.87
2019-03-23T12:01:01.747Z,102514.45
2019-03-23T12:03:32.723Z,102509.89
2019-03-23T12:06:04.823Z,102510.77
2019-03-23T12:08:35.896Z,102510.58
2019-03-23T12:11:06.665Z,102510.38
2019-03-23T12:13:37.410Z,102514.61
2019-03-23T12:16:08.185Z,102514.70
2019-03-23T12:18:38.818Z,102513.83
2019-03-23T12:21:09.553Z,102516.78
2019-03-23T12:23:40.242Z,102510.36
2019-03-23T12:26:10.871Z,102517.58
2019-03-23T12:28:41.348Z,102518.07
2019-03-23T12:31:11.754Z,102512.18
2019-03-23T12:33:42.215Z,102519.80
2019-03-23T12:36:12.747Z,102520.06
2019-03-23T12:38:43.370Z,102519.45
2019-03-23T12:41:22.787Z,102515.92
2019-03-23T12:43:46.806Z,102514.51
2019-03-23T12:46:17.191Z,102519.29
2019-03-23T12:48:48.085Z,102523.99
2019-03-23T12:51:18.631Z,102520.23
2019-03-23T12:53:49.131Z,102515.50
2019-03-23T12:56:20.207Z,102516.16
2019-03-23T12:58:51.371Z,102507.87
2019-03-23T13:01:22.577Z,102510.01
2019-03-23T13:03:53.175Z,102513.27
2019-03-23T13:06:23.833Z,102510.11
2019-03-23T13:08:54.470Z,102507.23
2019-03-23T13:11:44.321Z,102505.88
2019-03-23T13:14:14.976Z,102499.77
2019-03-23T13:16:45.575Z,102502.34
2019-03-23T13:19:16.116Z,102504.09
2019-03-23T13:21:46.671Z,102512.95
2019-03-23T13:24:17.213Z,102502.13
2019-03-23T13:26:47.786Z,102506.56
2019-03-23T13:29:18.571Z,102503.84
2019-03-23T13:31:49.188Z,102501.70
2019-03-23T13:34:19.870Z,102496.10
2019-03-23T13:36:51.441Z,102504.78
2019-03-23T13:39:21.986Z,102499.39
2019-03-23T13:41:52.539Z,102500.34
2019-03-23T13:44:23.121Z,102492.76
2019-03-23T13:46:53.629Z,102487.14
2019-03-23T13:49:24.202Z,102488.52
2019-03-23T13:51:55.067Z,102491.71
2019-03-23T13:54:25.966Z,102481.84
2019-03-23T13:56:56.694Z,102484.80
2019-03-23T13:59:29.084Z,102480.81
2019-03-23T14:02:01.144Z,102480.56
2019-03-23T14:04:34.086Z,102466.98
2019-03-23T14:07:04.586Z,102468.85
2019-03-23T14:09:35.491Z,102463.38
2019-03-23T14:12:06.749Z,102467.55
2019-03-23T14:14:37.575Z,102461.02
2019-03-23T14:17:08.121Z,102462.62
2019-03-23T14:19:38.662Z,102461.50
2019-03-23T14:22:09.221Z,102468.52
2019-03-23T14:24:39.605Z,102462.70
2019-03-23T14:27:10.252Z,102456.20
2019-03-23T14:29:41.015Z,102459.02
2019-03-23T14:32:12.617Z,102461.89
2019-03-23T14:34:43.970Z,102468.62
2019-03-23T14:37:14.535Z,102463.41
2019-03-23T14:39:44.949Z,102460.07
2019-03-23T14:42:15.990Z,102460.12
2019-03-23T14:44:46.838Z,102463.19
2019-03-23T14:47:17.719Z,102457.65
2019-03-23T14:49:50.092Z,102455.12
2019-03-23T14:52:20.544Z,102457.52
2019-03-23T14:54:51.355Z,102452.92
2019-03-23T14:57:22.475Z,102457.66
2019-03-23T14:59:53.078Z,102457.17
2019-03-23T15:02:23.850Z,102461.47
2019-03-23T15:04:54.613Z,102468.45
2019-03-23T15:07:25.687Z,102471.47
2019-03-23T15:09:56.359Z,102473.35
2019-03-23T15:12:26.734Z,102469.59
2019-03-23T15:14:57.154Z,102467.94
2019-03-23T15:17:28.094Z,102470.60
2019-03-23T15:19:58.583Z,102470.08
2019-03-23T15:22:29.074Z,102468.95
2019-03-23T15:25:00.213Z,102464.26
2019-03-23T15:27:32.146Z,102465.59
2019-03-23T15:30:02.883Z,102467.30
2019-03-23T15:32:33.658Z,102467.72
2019-03-23T15:35:04.415Z,102465.26
2019-03-23T15:37:34.960Z,102465.06
2019-03-23T15:40:05.942Z,102460.61
2019-03-23T15:42:36.872Z,102459.57
2019-03-23T15:45:08.641Z,102461.05
2019-03-23T15:47:39.486Z,102458.68
2019-03-23T15:50:11.482Z,102454.61
2019-03-23T15:52:42.070Z,102458.20
2019-03-23T15:55:12.611Z,102459.16
2019-03-23T15:57:43.241Z,102458.58
2019-03-23T16:00:14.470Z,102457.26
2019-03-23T16:02:45.866Z,102454.80
2019-03-23T16:05:17.829Z,102454.27
2019-03-23T16:07:48.667Z,102453.04
2019-03-23T16:10:19.182Z,102446.31
2019-03-23T16:12:49.648Z,102449.69
2019-03-23T16:15:20.254Z,102449.69
2019-03-23T16:17:51.030Z,102454.65
2019-03-23T16:20:21.837Z,102445.55
2019-03-23T16:22:53.027Z,102450.95
2019-03-23T16:25:23.691Z,102444.90
2019-03-23T16:27:54.161Z,102447.64
2019-03-23T16:30:30.900Z,102449.16
2019-03-23T16:33:01.509Z,102453.70
2019-03-23T16:35:33.492Z,102455.63
2019-03-23T16:38:04.113Z,102459.23
2019-03-23T16:40:34.673Z,102461.13
2019-03-23T16:43:06.320Z,102454.59
2019-03-23T16:45:36.979Z,102453.86
2019-03-23T16:48:08.098Z,102448.56
2019-03-23T16:50:38.654Z,102458.40
2019-03-23T16:53:09.359Z,102459.81
2019-03-23T16:55:39.844Z,102458.39
2019-03-23T16:58:16.047Z,102453.66
2019-03-23T17:00:42.997Z,102451.09
2019-03-23T17:03:13.590Z,102452.73
2019-03-23T17:05:44.552Z,102453.76
2019-03-23T17:08:14.960Z,102452.45
2019-03-23T17:10:45.483Z,102454.34
2019-03-23T17:13:16.175Z,102444.22
2019-03-23T17:15:46.713Z,102444.40
2019-03-23T17:18:18.360Z,102447.98
2019-03-23T17:20:48.870Z,102447.52
2019-03-23T17:23:20.031Z,102444.96
2019-03-23T17:25:50.540Z,102452.52
2019-03-23T17:28:20.951Z,102448.35
2019-03-23T17:30:51.484Z,102453.77
2019-03-23T17:33:21.906Z,102448.95
2019-03-23T17:35:52.530Z,102457.14
2019-03-23T17:38:23.325Z,102449.97
2019-03-23T17:40:54.153Z,102449.78
2019-03-23T17:43:25.710Z,102446.95
2019-03-23T17:45:56.262Z,102457.45
2019-03-23T17:48:26.704Z,102461.72
2019-03-23T17:50:57.241Z,102454.88
2019-03-23T17:53:27.645Z,102467.56
2019-03-23T17:55:58.754Z,102467.18
2019-03-23T17:58:29.205Z,102466.80
2019-03-23T18:01:00.564Z,102465.39
2019-03-23T18:03:31.746Z,102470.21
2019-03-23T18:06:02.450Z,102458.67
2019-03-23T18:08:33.206Z,102466.23
2019-03-23T18:11:03.954Z,102470.21
2019-03-23T18:13:34.445Z,102473.89
2019-03-23T18:16:04.968Z,102468.59
2019-03-23T18:18:35.753Z,102474.75
2019-03-23T18:21:06.284Z,102463.21
2019-03-23T18:23:36.786Z,102472.95
2019-03-23T18:26:07.454Z,102473.33
2019-03-23T18:28:38.030Z,102475.13
2019-03-23T18:31:08.488Z,102473.89
2019-03-23T18:33:39.000Z,102472.78
2019-03-23T18:36:10.780Z,102469.84
2019-03-23T18:38:41.265Z,102474.85
2019-03-23T18:41:11.783Z,102473.23
2019-03-23T18:43:42.235Z,102474.18
2019-03-23T18:46:12.717Z,102473.62
2019-03-23T18:48:43.511Z,102472.20
2019-03-23T18:51:14.246Z,102472.11
2019-03-23T18:53:45.178Z,102474.37
2019-03-23T18:56:15.615Z,102474.94
2019-03-23T18:58:46.154Z,102476.06
2019-03-23T19:01:17.495Z,102481.92
2019-03-23T19:03:47.934Z,102477.22
2019-03-23T19:06:18.460Z,102477.59
2019-03-23T19:08:48.975Z,102479.66
2019-03-23T19:11:19.583Z,102479.09
2019-03-23T19:13:50.098Z,102481.18
2019-03-23T19:16:21.917Z,102484.59
2019-03-23T19:18:52.722Z,102483.47
2019-03-23T19:21:23.187Z,102477.61
2019-03-23T19:23:53.610Z,102482.44
2019-03-23T19:26:24.039Z,102482.31
2019-03-23T19:28:54.836Z,102484.40
2019-03-23T19:31:25.585Z,102479.95
2019-03-23T19:33:55.992Z,102481.46
2019-03-23T19:36:26.723Z,102491.80
2019-03-23T19:38:58.848Z,102492.27
2019-03-23T19:41:29.666Z,102483.09
2019-03-23T19:44:00.483Z,102486.20
2019-03-23T19:46:30.938Z,102482.33
2019-03-23T19:49:01.710Z,102483.27
2019-03-23T19:51:32.381Z,102491.21
2019-03-23T19:54:03.168Z,102489.51
2019-03-23T19:56:34.826Z,102488.18
2019-03-23T19:59:05.314Z,102495.74
2019-03-23T20:01:36.299Z,102500.19
2019-03-23T20:04:06.890Z,102494.42
2019-03-23T20:06:37.250Z,102489.21
2019-03-23T20:09:08.832Z,102491.01
2019-03-23T20:11:39.895Z,102488.36
2019-03-23T20:14:10.393Z,102495.83
2019-03-23T20:16:41.006Z,102496.78
2019-03-23T20:19:11.619Z,102491.95
2019-03-23T20:21:42.024Z,102492.89
2019-03-23T20:24:13.731Z,102499.52
2019-03-23T20:26:44.223Z,102496.86
2019-03-23T20:29:15.069Z,102495.55
2019-03-23T20:31:45.720Z,102487.13
2019-03-23T20:34:16.097Z,102488.92
2019-03-23T20:36:47.290Z,102488.92
2019-03-23T20:39:17.893Z,102480.25
2019-03-23T20:41:48.352Z,102478.07
2019-03-23T20:44:18.822Z,102475.89
2019-03-23T20:46:49.745Z,102479.87
2019-03-23T20:49:20.460Z,102485.16
2019-03-23T20:51:51.564Z,102482.52
2019-03-23T20:54:22.188Z,102479.02
2019-03-23T20:56:52.791Z,102476.45
2019-03-23T20:59:23.330Z,102478.34
2019-03-23T21:01:54.379Z,102478.34
2019-03-23T21:04:25.101Z,102484.02
2019-03-23T21:06:55.537Z,102479.66
2019-03-23T21:09:26.408Z,102474.93
2019-03-23T21:11:57.259Z,102471.42
2019-03-23T21:14:28.023Z,102468.31
2019-03-23T21:16:58.527Z,102473.60
2019-03-23T21:19:29.118Z,102465.75
2019-03-23T21:21:59.558Z,102461.40
2019-03-23T21:24:30.298Z,102458.75
2019-03-23T21:27:01.123Z,102457.90
2019-03-23T21:29:32.633Z,102453.55
2019-03-23T21:32:03.129Z,102452.60
2019-03-23T21:34:33.665Z,102445.13
2019-03-23T21:37:05.288Z,102445.69
2019-03-23T21:39:36.431Z,102447.11
2019-03-23T21:42:06.944Z,102439.64
2019-03-23T21:44:37.750Z,102441.47
2019-03-23T21:47:08.533Z,102440.48
2019-03-23T21:49:39.061Z,102439.76
2019-03-23T21:52:09.587Z,102437.11
2019-03-23T21:54:40.014Z,102432.67
2019-03-23T21:57:10.659Z,102432.29
2019-03-23T21:59:41.389Z,102423.50
2019-03-23T22:02:11.978Z,102431.44
2019-03-23T22:04:43.543Z,102429.17
2019-03-23T22:07:13.926Z,102425.77
2019-03-23T22:09:44.354Z,102423.02
2019-03-23T22:12:15.166Z,102429.17
2019-03-23T22:14:47.125Z,102418.58
2019-03-23T22:17:17.650Z,102417.26
2019-03-23T22:19:48.836Z,102417.64
2019-03-23T22:22:19.363Z,102416.87
2019-03-23T22:24:49.783Z,102413.47
2019-03-23T22:27:20.225Z,102409.41
2019-03-23T22:29:50.662Z,102411.58
2019-03-23T22:32:22.249Z,102405.53
2019-03-23T22:34:52.743Z,102415.27
2019-03-23T22:37:23.098Z,102414.59
2019-03-23T22:39:53.587Z,102400.59
2019-03-23T22:42:24.076Z,102404.56
2019-03-23T22:44:54.499Z,102408.53
2019-03-23T22:47:24.888Z,102400.21
2019-03-23T22:49:55.638Z,102402.00
2019-03-23T22:52:26.120Z,102399.36
2019-03-23T22:54:56.904Z,102400.30
2019-03-23T22:57:27.426Z,102392.45
2019-03-23T22:59:58.183Z,102388.48
2019-03-23T23:02:28.772Z,102390.19
2019-03-23T23:04:59.249Z,102382.25
2019-03-23T23:07:29.757Z,102377.89
2019-03-23T23:10:00.593Z,102375.25
2019-03-23T23:12:31.491Z,102363.47
2019-03-23T23:15:04.816Z,102364.88
2019-03-23T23:17:34.369Z,102362.70
2019-03-23T23:20:05.456Z,102372.81
2019-03-23T23:22:35.948Z,102369.79
2019-03-23T23:25:06.884Z,102372.05
2019-03-23T23:27:37.401Z,102378.28
2019-03-23T23:30:10.109Z,102371.67
2019-03-23T23:32:40.622Z,102362.03
2019-03-23T23:35:11.321Z,102366.38
2019-03-23T23:37:43.831Z,102360.89
2019-03-23T23:40:15.611Z,102363.53
2019-03-23T23:42:47.492Z,102363.24
2019-03-23T23:45:18.053Z,102360.22
2019-03-23T23:47:48.908Z,102361.45
2019-03-23T23:50:19.562Z,102359.74
2019-03-23T23:52:50.115Z,102359.45
2019-03-23T23:55:20.606Z,102357.78
2019-03-23T23:57:51.171Z,102362.60
